Time;durP1;ratioP1;P1;durP2;ratioP2;P2;SDS_P1;SDS_P2;PMS_P1;PMS_P2;Temp;Humidity;BMP_temperature;BMP_pressure;BME280_temperature;BME280_humidity;BME280_pressure;Samples;Min_cycle;Max_cycle;Signal;HPM_P1;HPM_P2
2023/12/31 00:00:23;;;;;;;;;;;7.50;99.90;;;;;;5026816;28;19928;-77
2023/12/31 00:03:08;;;;;;;;;;;7.60;99.90;;;;;;5029892;28;19917;-76
2023/12/31 00:05:54;;;;;;;;;;;7.50;99.90;;;;;;5025568;28;19979;-79
2023/12/31 00:08:40;;;;;;;;;;;7.50;99.90;;;;;;5045182;28;20324;-77
2023/12/31 00:11:26;;;;;;;;;;;7.50;99.90;;;;;;5049660;28;19943;-77
2023/12/31 00:14:12;;;;;;;;;;;7.50;99.90;;;;;;5017764;28;19932;-77
2023/12/31 00:16:58;;;;;;;;;;;7.50;99.90;;;;;;5012889;28;20010;-76
2023/12/31 00:19:44;;;;;;;;;;;7.50;99.90;;;;;;5007513;28;19928;-78
2023/12/31 00:22:29;;;;;;;;;;;7.50;99.90;;;;;;5020723;28;20384;-77
2023/12/31 00:25:15;;;;;;;;;;;7.50;99.90;;;;;;5006002;28;19964;-76
2023/12/31 00:28:01;;;;;;;;;;;7.50;99.90;;;;;;4997626;28;19948;-77
2023/12/31 00:30:48;;;;;;;;;;;7.50;99.90;;;;;;5021497;28;19952;-78
2023/12/31 00:33:33;;;;;;;;;;;7.50;99.90;;;;;;5020799;28;19929;-77
2023/12/31 00:36:19;;;;;;;;;;;7.40;99.90;;;;;;5025442;28;19924;-76
2023/12/31 00:39:05;;;;;;;;;;;7.40;99.90;;;;;;5023445;28;20325;-76
2023/12/31 00:41:51;;;;;;;;;;;7.40;99.90;;;;;;5030507;28;19939;-76
2023/12/31 00:44:37;;;;;;;;;;;7.40;99.90;;;;;;5012639;28;20016;-76
2023/12/31 00:47:23;;;;;;;;;;;7.40;99.90;;;;;;5011020;28;19953;-79
2023/12/31 00:50:09;;;;;;;;;;;7.40;99.90;;;;;;5029008;28;20008;-78
2023/12/31 00:52:55;;;;;;;;;;;7.30;99.90;;;;;;5030053;28;19917;-77
2023/12/31 00:55:43;;;;;;;;;;;7.30;99.90;;;;;;5005470;28;19922;-78
2023/12/31 00:58:29;;;;;;;;;;;7.30;99.90;;;;;;5024475;28;19939;-77
2023/12/31 01:01:15;;;;;;;;;;;7.30;99.90;;;;;;5019780;28;19917;-76
2023/12/31 01:04:01;;;;;;;;;;;7.30;99.90;;;;;;5223726;22;19934;-78
2023/12/31 01:06:47;;;;;;;;;;;7.30;99.90;;;;;;4987629;28;20341;-78
2023/12/31 01:09:33;;;;;;;;;;;7.30;99.90;;;;;;4984482;28;19918;-78
2023/12/31 01:12:19;;;;;;;;;;;7.30;99.90;;;;;;4987572;28;19993;-78
2023/12/31 01:15:05;;;;;;;;;;;7.30;99.90;;;;;;4980475;28;19928;-77
2023/12/31 01:17:51;;;;;;;;;;;7.20;99.90;;;;;;4962638;28;19918;-77
2023/12/31 01:20:37;;;;;;;;;;;7.20;99.90;;;;;;4966032;28;20376;-78
2023/12/31 01:23:23;;;;;;;;;;;7.20;99.90;;;;;;4979716;28;19964;-78
2023/12/31 01:26:08;;;;;;;;;;;7.20;99.90;;;;;;4983927;28;19965;-78
2023/12/31 01:28:54;;;;;;;;;;;7.20;99.90;;;;;;4969524;28;19965;-78
2023/12/31 01:31:40;;;;;;;;;;;7.20;99.90;;;;;;4982611;28;20682;-77
2023/12/31 01:34:26;;;;;;;;;;;7.20;99.90;;;;;;4984710;28;19920;-77
2023/12/31 01:37:12;;;;;;;;;;;7.20;99.90;;;;;;4964616;28;20573;-77
2023/12/31 01:39:58;;;;;;;;;;;7.20;99.90;;;;;;4971158;28;19929;-78
2023/12/31 01:42:44;;;;;;;;;;;7.20;99.90;;;;;;4974488;28;19928;-78
2023/12/31 01:45:30;;;;;;;;;;;7.20;99.90;;;;;;4965445;28;20251;-78
2023/12/31 01:48:15;;;;;;;;;;;7.30;99.90;;;;;;4975455;28;19925;-78
2023/12/31 01:51:02;;;;;;;;;;;7.30;99.90;;;;;;4988643;28;19918;-78
2023/12/31 01:53:47;;;;;;;;;;;7.30;99.90;;;;;;4960135;28;19914;-78
2023/12/31 01:56:33;;;;;;;;;;;7.30;99.90;;;;;;4969590;28;20331;-78
2023/12/31 01:59:22;;;;;;;;;;;7.30;99.90;;;;;;4957245;28;19918;-78
2023/12/31 02:02:08;;;;;;;;;;;7.30;99.90;;;;;;4973959;28;19917;-78
2023/12/31 02:04:54;;;;;;;;;;;7.30;99.90;;;;;;4989916;28;19933;-79
2023/12/31 02:07:40;;;;;;;;;;;7.30;99.90;;;;;;4984253;28;20515;-78
2023/12/31 02:10:26;;;;;;;;;;;7.20;99.90;;;;;;4986012;28;19926;-78
2023/12/31 02:13:12;;;;;;;;;;;7.30;99.90;;;;;;4969979;28;19996;-77
2023/12/31 02:15:58;;;;;;;;;;;7.30;99.90;;;;;;4998432;28;19917;-78
2023/12/31 02:18:44;;;;;;;;;;;7.20;99.90;;;;;;4978732;28;19921;-78
2023/12/31 02:21:29;;;;;;;;;;;7.20;99.90;;;;;;4964119;28;19988;-78
2023/12/31 02:24:15;;;;;;;;;;;7.20;99.90;;;;;;5008259;28;20055;-78
2023/12/31 02:27:01;;;;;;;;;;;7.20;99.90;;;;;;4980992;28;19922;-78
2023/12/31 02:29:47;;;;;;;;;;;7.30;99.90;;;;;;4989973;28;19918;-77
2023/12/31 02:32:33;;;;;;;;;;;7.30;99.90;;;;;;4970435;28;19940;-77
2023/12/31 02:35:19;;;;;;;;;;;7.30;99.90;;;;;;4983104;28;19976;-77
2023/12/31 02:38:05;;;;;;;;;;;7.30;99.90;;;;;;4969168;28;19940;-78
2023/12/31 02:40:51;;;;;;;;;;;7.20;99.90;;;;;;4967083;28;19913;-78
2023/12/31 02:43:36;;;;;;;;;;;7.20;99.90;;;;;;4985765;28;20007;-78
2023/12/31 02:46:22;;;;;;;;;;;7.20;99.90;;;;;;4961998;28;20279;-78
2023/12/31 02:49:11;;;;;;;;;;;7.20;99.90;;;;;;4973559;28;19917;-77
2023/12/31 02:51:57;;;;;;;;;;;7.20;99.90;;;;;;4953720;28;19987;-78
2023/12/31 02:54:45;;;;;;;;;;;7.10;99.90;;;;;;4976205;28;20330;-77
2023/12/31 02:57:31;;;;;;;;;;;7.20;99.90;;;;;;4978353;28;19943;-78
2023/12/31 03:00:17;;;;;;;;;;;7.10;99.90;;;;;;4987374;28;20028;-77
2023/12/31 03:03:03;;;;;;;;;;;7.10;99.90;;;;;;4973447;28;20051;-78
2023/12/31 03:05:49;;;;;;;;;;;7.00;99.90;;;;;;4962687;28;20390;-77
2023/12/31 03:08:35;;;;;;;;;;;7.00;99.90;;;;;;4974797;28;19917;-77
2023/12/31 03:11:21;;;;;;;;;;;7.00;99.90;;;;;;4936234;28;20250;-77
2023/12/31 03:14:07;;;;;;;;;;;7.00;99.90;;;;;;4981163;28;19914;-77
2023/12/31 03:16:53;;;;;;;;;;;7.00;99.90;;;;;;4933884;28;20228;-77
2023/12/31 03:19:39;;;;;;;;;;;7.00;99.90;;;;;;4977729;28;19918;-77
2023/12/31 03:22:24;;;;;;;;;;;7.10;99.90;;;;;;4951024;28;20212;-78
2023/12/31 03:25:10;;;;;;;;;;;7.10;99.90;;;;;;4977153;28;19918;-78
2023/12/31 03:27:56;;;;;;;;;;;7.10;99.90;;;;;;4961946;28;19922;-78
2023/12/31 03:30:42;;;;;;;;;;;7.10;99.90;;;;;;4977075;28;20382;-79
2023/12/31 03:33:28;;;;;;;;;;;7.10;99.90;;;;;;4975937;28;19914;-78
2023/12/31 03:36:14;;;;;;;;;;;7.10;99.90;;;;;;4967471;28;19928;-78
2023/12/31 03:39:00;;;;;;;;;;;7.10;99.90;;;;;;4967969;28;19944;-78
2023/12/31 03:41:47;;;;;;;;;;;7.10;99.90;;;;;;4949741;28;19926;-79
2023/12/31 03:44:33;;;;;;;;;;;7.20;99.90;;;;;;4962786;28;20325;-79
2023/12/31 03:47:19;;;;;;;;;;;7.20;99.90;;;;;;4962608;28;19918;-79
2023/12/31 03:50:05;;;;;;;;;;;7.20;99.90;;;;;;4962864;28;20373;-79
2023/12/31 03:52:51;;;;;;;;;;;7.30;99.90;;;;;;4939773;29;19925;-79
2023/12/31 03:55:37;;;;;;;;;;;7.30;99.90;;;;;;4956033;29;19969;-78
2023/12/31 03:58:23;;;;;;;;;;;7.30;99.90;;;;;;4950745;28;19918;-77
2023/12/31 04:01:08;;;;;;;;;;;7.30;99.90;;;;;;4949429;28;20004;-77
2023/12/31 04:03:54;;;;;;;;;;;7.30;99.90;;;;;;4967531;28;19917;-78
2023/12/31 04:06:41;;;;;;;;;;;7.30;99.90;;;;;;4984704;28;19948;-78
2023/12/31 04:09:27;;;;;;;;;;;7.30;99.90;;;;;;5000489;28;20016;-78
2023/12/31 04:12:13;;;;;;;;;;;7.30;99.90;;;;;;4997705;28;20589;-77
2023/12/31 04:14:59;;;;;;;;;;;7.30;99.90;;;;;;4982204;28;20321;-78
2023/12/31 04:17:45;;;;;;;;;;;7.30;99.90;;;;;;4992850;28;20013;-78
2023/12/31 04:20:31;;;;;;;;;;;7.30;99.90;;;;;;5000364;28;19944;-78
2023/12/31 04:23:17;;;;;;;;;;;7.30;99.90;;;;;;4961820;28;19976;-78
2023/12/31 04:26:05;;;;;;;;;;;7.40;99.90;;;;;;4983580;28;19925;-78
2023/12/31 04:28:51;;;;;;;;;;;7.40;99.90;;;;;;4995660;28;19918;-78
2023/12/31 04:31:44;;;;;;;;;;;7.30;99.90;;;;;;4976760;28;20029;-79
2023/12/31 04:34:30;;;;;;;;;;;7.30;99.90;;;;;;4988924;28;19975;-79
2023/12/31 04:37:16;;;;;;;;;;;7.30;99.90;;;;;;4980806;28;19949;-79
2023/12/31 04:40:03;;;;;;;;;;;7.40;99.90;;;;;;4971239;28;19924;-78
2023/12/31 04:42:49;;;;;;;;;;;7.40;99.90;;;;;;4977084;28;20019;-78
2023/12/31 04:45:35;;;;;;;;;;;7.30;99.90;;;;;;4978310;28;19932;-78
2023/12/31 04:48:21;;;;;;;;;;;7.40;99.90;;;;;;4975588;28;19913;-78
2023/12/31 04:51:07;;;;;;;;;;;7.30;99.90;;;;;;4998063;28;19922;-79
2023/12/31 04:53:53;;;;;;;;;;;7.40;99.90;;;;;;4994923;28;20241;-78
2023/12/31 04:56:39;;;;;;;;;;;7.40;99.90;;;;;;4975800;28;19917;-78
2023/12/31 04:59:25;;;;;;;;;;;7.40;99.90;;;;;;4966498;28;19951;-78
2023/12/31 05:02:11;;;;;;;;;;;7.40;99.90;;;;;;4989655;28;20253;-78
2023/12/31 05:04:57;;;;;;;;;;;7.40;99.90;;;;;;4987601;28;19922;-78
2023/12/31 05:07:43;;;;;;;;;;;7.40;99.90;;;;;;4971410;28;19926;-78
2023/12/31 05:10:29;;;;;;;;;;;7.40;99.90;;;;;;4988857;28;19918;-78
2023/12/31 05:13:15;;;;;;;;;;;7.40;99.90;;;;;;4999860;28;19914;-79
2023/12/31 05:16:01;;;;;;;;;;;7.40;99.90;;;;;;5004088;28;19928;-78
2023/12/31 05:18:50;;;;;;;;;;;7.40;99.90;;;;;;4989756;28;19940;-78
2023/12/31 05:21:37;;;;;;;;;;;7.40;99.90;;;;;;4966337;28;19918;-78
2023/12/31 05:24:23;;;;;;;;;;;7.40;99.90;;;;;;4984591;28;19921;-78
2023/12/31 05:27:09;;;;;;;;;;;7.40;99.90;;;;;;4978950;28;19939;-79
2023/12/31 05:29:56;;;;;;;;;;;7.40;99.90;;;;;;4970945;28;19945;-78
2023/12/31 05:32:45;;;;;;;;;;;7.40;99.90;;;;;;4971127;28;19921;-79
2023/12/31 05:35:30;;;;;;;;;;;7.40;99.90;;;;;;4997597;28;19945;-77
2023/12/31 05:38:16;;;;;;;;;;;7.40;99.90;;;;;;4985392;28;19928;-78
2023/12/31 05:41:02;;;;;;;;;;;7.40;99.90;;;;;;4981277;28;20596;-78
2023/12/31 05:43:48;;;;;;;;;;;7.40;99.90;;;;;;4985760;28;19914;-77
2023/12/31 05:46:34;;;;;;;;;;;7.40;99.90;;;;;;4951142;28;19929;-78
2023/12/31 05:49:20;;;;;;;;;;;7.40;99.90;;;;;;4963845;28;19972;-77
2023/12/31 05:52:07;;;;;;;;;;;7.40;99.90;;;;;;4969862;28;19917;-77
2023/12/31 05:54:53;;;;;;;;;;;7.40;99.90;;;;;;4971159;28;20045;-78
2023/12/31 05:57:40;;;;;;;;;;;7.40;99.90;;;;;;4963814;28;19929;-78
2023/12/31 06:00:26;;;;;;;;;;;7.40;99.90;;;;;;4986856;28;19918;-77
2023/12/31 06:03:12;;;;;;;;;;;7.50;99.90;;;;;;4965377;28;19914;-78
2023/12/31 06:05:59;;;;;;;;;;;7.40;99.90;;;;;;4954004;28;19926;-78
2023/12/31 06:08:44;;;;;;;;;;;7.40;99.90;;;;;;4970094;28;19914;-77
2023/12/31 06:11:30;;;;;;;;;;;7.50;99.90;;;;;;4971998;28;19914;-78
2023/12/31 06:14:16;;;;;;;;;;;7.40;99.90;;;;;;4982072;28;19950;-77
2023/12/31 06:17:02;;;;;;;;;;;7.40;99.90;;;;;;4969515;28;19913;-78
2023/12/31 06:19:48;;;;;;;;;;;7.40;99.90;;;;;;4969987;28;19945;-77
2023/12/31 06:22:35;;;;;;;;;;;7.50;99.90;;;;;;4967727;28;19921;-77
2023/12/31 06:25:20;;;;;;;;;;;7.40;99.90;;;;;;4983065;28;19988;-78
2023/12/31 06:28:06;;;;;;;;;;;7.50;99.90;;;;;;4965255;28;20013;-79
2023/12/31 06:30:52;;;;;;;;;;;7.50;99.90;;;;;;4997392;28;19913;-77
2023/12/31 06:33:38;;;;;;;;;;;7.50;99.90;;;;;;4982062;28;20681;-77
2023/12/31 06:36:24;;;;;;;;;;;7.40;99.90;;;;;;4982231;28;19928;-77
2023/12/31 06:39:10;;;;;;;;;;;7.50;99.90;;;;;;4982002;28;19988;-77
2023/12/31 06:41:56;;;;;;;;;;;7.50;99.90;;;;;;4982021;28;20385;-77
2023/12/31 06:44:41;;;;;;;;;;;7.50;99.90;;;;;;4968028;28;19925;-77
2023/12/31 06:47:27;;;;;;;;;;;7.50;99.90;;;;;;4982821;28;20242;-77
2023/12/31 06:50:13;;;;;;;;;;;7.50;99.90;;;;;;4996203;28;19972;-77
2023/12/31 06:52:59;;;;;;;;;;;7.50;99.90;;;;;;4983288;28;19925;-77
2023/12/31 06:55:45;;;;;;;;;;;7.50;99.90;;;;;;4978989;28;19973;-77
2023/12/31 06:58:31;;;;;;;;;;;7.50;99.90;;;;;;4983201;28;19936;-77
2023/12/31 07:01:20;;;;;;;;;;;7.50;99.90;;;;;;4983232;28;20345;-77
2023/12/31 07:04:06;;;;;;;;;;;7.50;99.90;;;;;;4980350;28;20651;-77
2023/12/31 07:06:52;;;;;;;;;;;7.50;99.90;;;;;;4970347;28;19929;-76
2023/12/31 07:09:38;;;;;;;;;;;7.50;99.90;;;;;;4982717;28;20208;-77
2023/12/31 07:12:23;;;;;;;;;;;7.40;99.90;;;;;;4995476;28;19914;-77
2023/12/31 07:15:09;;;;;;;;;;;7.40;99.90;;;;;;4980576;28;19964;-77
2023/12/31 07:17:55;;;;;;;;;;;7.40;99.90;;;;;;4981904;28;19922;-77
2023/12/31 07:20:41;;;;;;;;;;;7.40;99.90;;;;;;4983100;28;19932;-77
2023/12/31 07:23:27;;;;;;;;;;;7.40;99.90;;;;;;4963149;28;20080;-76
2023/12/31 07:26:22;;;;;;;;;;;7.40;99.90;;;;;;4961137;28;19972;-77
2023/12/31 07:29:08;;;;;;;;;;;7.40;99.90;;;;;;4962533;28;19917;-78
2023/12/31 07:31:54;;;;;;;;;;;7.40;99.90;;;;;;4965059;28;19945;-78
2023/12/31 07:34:40;;;;;;;;;;;7.40;99.90;;;;;;4981554;28;20542;-78
2023/12/31 07:37:26;;;;;;;;;;;7.50;99.90;;;;;;4982513;28;20016;-78
2023/12/31 07:40:12;;;;;;;;;;;7.50;99.90;;;;;;4967881;28;19917;-79
2023/12/31 07:42:58;;;;;;;;;;;7.50;99.90;;;;;;4982721;28;19914;-80
2023/12/31 07:45:44;;;;;;;;;;;7.50;99.90;;;;;;4983680;28;19917;-79
2023/12/31 07:48:30;;;;;;;;;;;7.40;99.90;;;;;;4983607;28;19918;-79
2023/12/31 07:51:16;;;;;;;;;;;7.40;99.90;;;;;;4980702;28;19928;-78
2023/12/31 07:54:02;;;;;;;;;;;7.40;99.90;;;;;;4968196;28;19992;-78
2023/12/31 07:56:48;;;;;;;;;;;7.40;99.90;;;;;;4981481;28;19925;-79
2023/12/31 07:59:35;;;;;;;;;;;7.40;99.90;;;;;;4983848;28;19972;-79
2023/12/31 08:02:21;;;;;;;;;;;7.40;99.90;;;;;;4982676;28;19914;-78
2023/12/31 08:05:09;;;;;;;;;;;7.40;99.90;;;;;;4970627;28;20505;-79
2023/12/31 08:07:54;;;;;;;;;;;7.40;99.90;;;;;;4978856;28;19914;-78
2023/12/31 08:10:41;;;;;;;;;;;7.40;99.90;;;;;;4980470;28;19996;-78
2023/12/31 08:13:26;;;;;;;;;;;7.40;99.90;;;;;;4980430;28;19973;-78
2023/12/31 08:16:12;;;;;;;;;;;7.40;99.90;;;;;;4998817;28;19928;-78
2023/12/31 08:18:58;;;;;;;;;;;7.40;99.90;;;;;;4986126;28;19914;-79
2023/12/31 08:21:45;;;;;;;;;;;7.40;99.90;;;;;;4996354;28;19917;-79
2023/12/31 08:24:31;;;;;;;;;;;7.40;99.90;;;;;;5007780;28;19918;-78
2023/12/31 08:27:17;;;;;;;;;;;7.40;99.90;;;;;;4965719;28;19914;-79
2023/12/31 08:30:03;;;;;;;;;;;7.40;99.90;;;;;;4979730;28;20358;-77
2023/12/31 08:32:48;;;;;;;;;;;7.50;99.90;;;;;;4983532;28;19914;-78
2023/12/31 08:35:34;;;;;;;;;;;7.40;99.90;;;;;;4993475;28;19920;-78
2023/12/31 08:38:20;;;;;;;;;;;7.50;99.90;;;;;;4979973;28;19914;-78
2023/12/31 08:41:06;;;;;;;;;;;7.50;99.90;;;;;;4979412;28;19929;-78
2023/12/31 08:43:52;;;;;;;;;;;7.50;99.90;;;;;;4981817;28;19949;-77
2023/12/31 08:46:38;;;;;;;;;;;7.50;99.90;;;;;;4982691;28;20290;-76
2023/12/31 08:49:26;;;;;;;;;;;7.60;99.90;;;;;;4999011;28;19917;-77
2023/12/31 08:52:12;;;;;;;;;;;7.60;99.90;;;;;;5012329;28;20354;-79
2023/12/31 08:54:58;;;;;;;;;;;7.60;99.90;;;;;;4980621;28;19972;-78
2023/12/31 08:57:46;;;;;;;;;;;7.70;99.90;;;;;;4965167;28;19949;-78
2023/12/31 09:00:32;;;;;;;;;;;7.60;99.90;;;;;;4981480;28;20579;-78
2023/12/31 09:03:18;;;;;;;;;;;7.70;99.90;;;;;;4981295;28;19914;-79
2023/12/31 09:06:04;;;;;;;;;;;7.70;99.90;;;;;;4948826;28;19937;-79
2023/12/31 09:08:50;;;;;;;;;;;7.70;99.90;;;;;;4961687;28;20251;-78
2023/12/31 09:11:35;;;;;;;;;;;7.70;99.90;;;;;;4967263;28;19921;-78
2023/12/31 09:14:21;;;;;;;;;;;7.80;99.90;;;;;;4982791;28;19918;-77
2023/12/31 09:17:07;;;;;;;;;;;7.80;99.90;;;;;;4996051;28;20309;-79
2023/12/31 09:19:53;;;;;;;;;;;7.80;99.90;;;;;;4963338;28;19968;-78
2023/12/31 09:22:39;;;;;;;;;;;7.80;99.90;;;;;;4970400;28;20603;-79
2023/12/31 09:25:26;;;;;;;;;;;7.80;99.90;;;;;;4958645;28;19918;-77
2023/12/31 09:28:12;;;;;;;;;;;7.90;99.90;;;;;;4977926;28;19917;-77
2023/12/31 09:30:58;;;;;;;;;;;7.90;99.90;;;;;;4980072;28;20024;-78
2023/12/31 09:33:44;;;;;;;;;;;7.90;99.90;;;;;;4977421;28;19924;-77
2023/12/31 09:36:30;;;;;;;;;;;7.90;99.90;;;;;;4995949;28;20568;-77
2023/12/31 09:39:17;;;;;;;;;;;7.90;99.90;;;;;;4974776;28;20004;-79
2023/12/31 09:42:12;;;;;;;;;;;7.90;99.90;;;;;;4986389;28;19972;-78
2023/12/31 09:44:58;;;;;;;;;;;8.00;99.90;;;;;;4991833;28;19983;-79
2023/12/31 09:47:44;;;;;;;;;;;8.00;99.90;;;;;;5020282;28;19972;-75
2023/12/31 09:50:30;;;;;;;;;;;8.00;99.90;;;;;;4978254;28;19914;-75
2023/12/31 09:53:16;;;;;;;;;;;8.00;99.90;;;;;;4969459;28;19924;-75
2023/12/31 09:56:04;;;;;;;;;;;8.00;99.90;;;;;;4984780;28;19925;-75
2023/12/31 09:58:58;;;;;;;;;;;8.00;99.90;;;;;;4967994;28;19918;-74
2023/12/31 10:01:45;;;;;;;;;;;8.10;99.90;;;;;;4987258;28;19918;-75
2023/12/31 10:04:31;;;;;;;;;;;8.10;99.90;;;;;;4958471;28;19929;-77
2023/12/31 10:07:17;;;;;;;;;;;8.20;99.90;;;;;;4964493;28;19914;-77
2023/12/31 10:10:03;;;;;;;;;;;8.20;99.90;;;;;;4978324;28;19944;-77
2023/12/31 10:12:49;;;;;;;;;;;8.20;99.90;;;;;;4984962;28;19929;-77
2023/12/31 10:15:35;;;;;;;;;;;8.20;99.90;;;;;;4980772;28;19923;-77
2023/12/31 10:18:21;;;;;;;;;;;8.20;99.90;;;;;;4988431;28;20064;-77
2023/12/31 10:21:08;;;;;;;;;;;8.20;99.90;;;;;;4970241;28;19918;-77
2023/12/31 10:23:54;;;;;;;;;;;8.30;99.90;;;;;;4971261;28;20526;-76
2023/12/31 10:26:40;;;;;;;;;;;8.30;99.90;;;;;;4963573;28;20450;-75
2023/12/31 10:29:26;;;;;;;;;;;8.30;99.90;;;;;;4991089;28;19971;-75
2023/12/31 10:32:12;;;;;;;;;;;8.30;99.90;;;;;;4965279;28;19918;-76
2023/12/31 10:35:04;;;;;;;;;;;8.40;99.90;;;;;;4967516;28;19972;-77
2023/12/31 10:38:01;;;;;;;;;;;8.40;99.90;;;;;;4975181;28;19949;-77
2023/12/31 10:40:47;;;;;;;;;;;8.50;99.90;;;;;;4963950;28;19944;-79
2023/12/31 10:43:33;;;;;;;;;;;8.50;99.90;;;;;;4977692;28;19988;-75
2023/12/31 10:46:19;;;;;;;;;;;8.60;99.90;;;;;;4975634;28;19918;-75
2023/12/31 10:49:05;;;;;;;;;;;8.60;99.90;;;;;;4969015;28;19913;-75
2023/12/31 10:51:53;;;;;;;;;;;8.60;99.90;;;;;;4995806;28;19980;-77
2023/12/31 10:54:42;;;;;;;;;;;8.70;99.90;;;;;;4981307;28;19973;-79
2023/12/31 10:57:28;;;;;;;;;;;8.70;99.90;;;;;;4968556;28;20025;-78
2023/12/31 11:00:15;;;;;;;;;;;8.70;99.90;;;;;;4969133;28;19914;-78
2023/12/31 11:03:02;;;;;;;;;;;8.80;99.90;;;;;;4978747;28;19914;-80
2023/12/31 11:05:47;;;;;;;;;;;8.80;99.90;;;;;;4986579;28;19925;-80
2023/12/31 11:08:33;;;;;;;;;;;8.80;99.90;;;;;;4998604;28;19985;-79
2023/12/31 11:11:19;;;;;;;;;;;8.80;99.90;;;;;;4975573;28;19943;-80
2023/12/31 11:14:06;;;;;;;;;;;8.90;99.90;;;;;;4969081;28;19991;-79
2023/12/31 11:17:16;;;;;;;;;;;8.90;99.90;;;;;;5003720;28;19957;-79
2023/12/31 11:20:05;;;;;;;;;;;8.90;99.90;;;;;;4960436;28;19918;-76
2023/12/31 11:23:10;;;;;;;;;;;8.90;99.90;;;;;;4985182;28;19929;-76
2023/12/31 11:25:57;;;;;;;;;;;9.00;99.90;;;;;;4976626;28;19933;-76
2023/12/31 11:28:53;;;;;;;;;;;9.00;99.90;;;;;;4968161;28;19924;-76
2023/12/31 11:31:42;;;;;;;;;;;9.00;99.90;;;;;;4973055;28;20434;-76
2023/12/31 11:34:29;;;;;;;;;;;9.00;99.90;;;;;;4968082;28;19918;-77
2023/12/31 11:37:15;;;;;;;;;;;8.90;99.90;;;;;;4980548;28;19920;-76
2023/12/31 11:40:04;;;;;;;;;;;9.00;99.90;;;;;;4991709;28;20469;-79
2023/12/31 11:42:50;;;;;;;;;;;8.90;99.90;;;;;;4972235;28;19922;-78
2023/12/31 11:45:43;;;;;;;;;;;9.00;99.90;;;;;;4986240;28;19925;-80
2023/12/31 11:48:29;;;;;;;;;;;9.00;99.90;;;;;;4987417;28;19955;-76
2023/12/31 11:51:15;;;;;;;;;;;9.00;99.90;;;;;;4953382;28;20026;-76
2023/12/31 11:54:01;;;;;;;;;;;9.10;99.90;;;;;;4973771;28;20216;-76
2023/12/31 11:56:47;;;;;;;;;;;9.10;99.90;;;;;;4972819;28;19928;-75
2023/12/31 11:59:34;;;;;;;;;;;9.10;99.90;;;;;;4980760;28;19925;-75
2023/12/31 12:02:20;;;;;;;;;;;9.10;99.90;;;;;;4967824;28;19917;-76
2023/12/31 12:05:06;;;;;;;;;;;9.20;99.90;;;;;;4983430;28;19929;-77
2023/12/31 12:07:52;;;;;;;;;;;9.10;99.90;;;;;;4968208;28;19957;-76
2023/12/31 12:10:38;;;;;;;;;;;9.10;99.90;;;;;;4982200;28;19918;-76
2023/12/31 12:13:24;;;;;;;;;;;9.10;99.90;;;;;;4962095;28;19917;-76
2023/12/31 12:16:10;;;;;;;;;;;9.10;99.90;;;;;;4988758;28;20242;-76
2023/12/31 12:18:59;;;;;;;;;;;9.10;99.90;;;;;;4952533;28;19918;-75
2023/12/31 12:21:45;;;;;;;;;;;9.10;99.90;;;;;;4987818;28;19945;-76
2023/12/31 12:24:31;;;;;;;;;;;9.10;99.90;;;;;;4970156;28;19957;-76
2023/12/31 12:27:17;;;;;;;;;;;9.10;99.90;;;;;;4982323;28;20004;-75
2023/12/31 12:30:03;;;;;;;;;;;9.10;99.90;;;;;;4982566;28;20306;-76
2023/12/31 12:32:49;;;;;;;;;;;9.10;99.90;;;;;;4964631;28;19913;-75
2023/12/31 12:35:39;;;;;;;;;;;9.10;99.90;;;;;;4979536;28;19924;-75
2023/12/31 12:38:25;;;;;;;;;;;9.10;99.90;;;;;;4979915;28;19928;-76
2023/12/31 12:41:11;;;;;;;;;;;9.10;99.90;;;;;;4979571;28;19926;-75
2023/12/31 12:43:57;;;;;;;;;;;9.10;99.90;;;;;;4993939;28;19922;-76
2023/12/31 12:46:44;;;;;;;;;;;9.10;99.90;;;;;;4981201;28;19976;-76
2023/12/31 12:49:29;;;;;;;;;;;9.10;99.90;;;;;;4987639;28;20000;-76
2023/12/31 12:52:16;;;;;;;;;;;9.10;99.90;;;;;;4967310;28;19914;-75
2023/12/31 12:55:02;;;;;;;;;;;9.10;99.90;;;;;;4968222;28;19914;-76
2023/12/31 12:57:49;;;;;;;;;;;9.10;99.90;;;;;;4987398;28;19914;-76
2023/12/31 13:00:35;;;;;;;;;;;9.10;99.90;;;;;;4986105;28;19976;-75
2023/12/31 13:03:21;;;;;;;;;;;9.10;99.90;;;;;;4998661;28;19921;-76
2023/12/31 13:06:06;;;;;;;;;;;9.10;99.90;;;;;;4966980;28;19930;-76
2023/12/31 13:08:52;;;;;;;;;;;9.10;99.90;;;;;;4987433;28;19918;-76
2023/12/31 13:11:38;;;;;;;;;;;9.10;99.90;;;;;;4981048;28;19945;-75
2023/12/31 13:14:24;;;;;;;;;;;9.10;99.90;;;;;;4966116;28;20338;-76
2023/12/31 13:17:10;;;;;;;;;;;9.20;99.90;;;;;;4981236;28;20012;-77
2023/12/31 13:19:57;;;;;;;;;;;9.20;99.90;;;;;;4982617;28;19921;-76
2023/12/31 13:22:44;;;;;;;;;;;9.20;99.90;;;;;;4988772;28;19921;-76
2023/12/31 13:25:30;;;;;;;;;;;9.30;99.90;;;;;;4975495;28;19972;-75
2023/12/31 13:28:17;;;;;;;;;;;9.30;99.90;;;;;;4997048;28;19913;-76
2023/12/31 13:31:03;;;;;;;;;;;9.40;99.90;;;;;;4966563;28;19924;-75
2023/12/31 13:33:49;;;;;;;;;;;9.40;99.90;;;;;;4970928;28;19918;-76
2023/12/31 13:36:35;;;;;;;;;;;9.40;99.90;;;;;;4968175;28;20006;-75
2023/12/31 13:39:21;;;;;;;;;;;9.50;99.90;;;;;;4977133;28;19922;-74
2023/12/31 13:42:07;;;;;;;;;;;9.50;99.90;;;;;;4993441;28;19917;-74
2023/12/31 13:44:53;;;;;;;;;;;9.50;99.90;;;;;;4981848;28;20016;-75
2023/12/31 13:47:39;;;;;;;;;;;9.60;99.90;;;;;;4974814;28;19914;-76
2023/12/31 13:50:25;;;;;;;;;;;9.60;99.90;;;;;;4981801;28;20620;-79
2023/12/31 13:53:12;;;;;;;;;;;9.60;99.90;;;;;;4970979;28;20307;-76
2023/12/31 13:55:58;;;;;;;;;;;9.60;99.90;;;;;;4983678;28;19913;-78
2023/12/31 13:58:44;;;;;;;;;;;9.70;99.90;;;;;;4989638;28;19997;-78
2023/12/31 14:01:30;;;;;;;;;;;9.70;99.90;;;;;;4969191;28;20346;-78
2023/12/31 14:04:18;;;;;;;;;;;9.70;99.90;;;;;;4985196;28;19921;-78
2023/12/31 14:07:05;;;;;;;;;;;9.70;99.90;;;;;;4980750;28;20254;-78
2023/12/31 14:09:51;;;;;;;;;;;9.70;99.90;;;;;;4974248;28;19976;-78
2023/12/31 14:12:36;;;;;;;;;;;9.70;99.90;;;;;;4990068;28;19980;-78
2023/12/31 14:15:22;;;;;;;;;;;9.70;99.90;;;;;;4978922;28;19918;-77
2023/12/31 14:18:08;;;;;;;;;;;9.70;99.90;;;;;;4984830;28;20016;-79
2023/12/31 14:20:54;;;;;;;;;;;9.70;99.90;;;;;;4999807;28;19953;-79
2023/12/31 14:23:40;;;;;;;;;;;9.70;99.90;;;;;;4963698;28;19914;-78
2023/12/31 14:26:26;;;;;;;;;;;9.70;99.90;;;;;;4979457;28;19937;-79
2023/12/31 14:29:12;;;;;;;;;;;9.70;99.90;;;;;;4983642;28;19928;-78
2023/12/31 14:31:58;;;;;;;;;;;9.70;99.90;;;;;;4972422;28;19918;-77
2023/12/31 14:34:44;;;;;;;;;;;9.70;99.90;;;;;;4967159;28;19925;-77
2023/12/31 14:37:30;;;;;;;;;;;9.60;99.90;;;;;;4999847;28;19918;-79
2023/12/31 14:40:16;;;;;;;;;;;9.60;99.90;;;;;;4985866;28;20076;-80
2023/12/31 14:43:03;;;;;;;;;;;9.60;99.90;;;;;;4971612;28;19925;-78
2023/12/31 14:45:49;;;;;;;;;;;9.60;99.90;;;;;;4986304;28;19961;-76
2023/12/31 14:48:38;;;;;;;;;;;9.60;99.90;;;;;;4991163;28;19918;-76
2023/12/31 14:51:23;;;;;;;;;;;9.60;99.90;;;;;;4961820;28;19928;-77
2023/12/31 14:54:09;;;;;;;;;;;9.50;99.90;;;;;;4962550;28;19918;-79
2023/12/31 14:56:55;;;;;;;;;;;9.50;99.90;;;;;;4952221;28;20036;-78
2023/12/31 14:59:41;;;;;;;;;;;9.60;99.90;;;;;;4980907;28;20004;-78
2023/12/31 15:02:27;;;;;;;;;;;9.60;99.90;;;;;;4989050;28;20644;-76
2023/12/31 15:05:13;;;;;;;;;;;9.60;99.90;;;;;;4966635;28;19992;-79
2023/12/31 15:08:00;;;;;;;;;;;9.60;99.90;;;;;;4962523;28;19917;-79
2023/12/31 15:10:46;;;;;;;;;;;9.60;99.90;;;;;;4979763;28;19918;-79
2023/12/31 15:13:35;;;;;;;;;;;9.50;99.90;;;;;;4984544;28;19944;-79
2023/12/31 15:16:21;;;;;;;;;;;9.60;99.90;;;;;;4981563;28;19950;-78
2023/12/31 15:19:07;;;;;;;;;;;9.60;99.90;;;;;;4982595;28;19952;-78
2023/12/31 15:21:53;;;;;;;;;;;9.60;99.90;;;;;;4999287;28;20318;-78
2023/12/31 15:24:39;;;;;;;;;;;9.70;99.90;;;;;;4968757;28;19928;-77
2023/12/31 15:27:25;;;;;;;;;;;9.70;99.90;;;;;;4969190;28;20386;-78
2023/12/31 15:30:12;;;;;;;;;;;9.70;99.90;;;;;;4994085;28;19927;-77
2023/12/31 15:32:57;;;;;;;;;;;9.70;99.90;;;;;;4969027;28;19918;-78
2023/12/31 15:35:46;;;;;;;;;;;9.80;99.90;;;;;;4996096;28;20030;-77
2023/12/31 15:38:32;;;;;;;;;;;9.80;99.90;;;;;;4970145;28;19918;-78
2023/12/31 15:41:18;;;;;;;;;;;9.90;99.90;;;;;;4966816;28;19918;-78
2023/12/31 15:44:04;;;;;;;;;;;9.90;99.90;;;;;;5007521;28;19941;-77
2023/12/31 15:46:50;;;;;;;;;;;9.90;99.90;;;;;;4970875;28;20005;-77
2023/12/31 15:49:36;;;;;;;;;;;9.90;99.90;;;;;;4992315;28;20345;-77
2023/12/31 15:52:21;;;;;;;;;;;9.90;99.90;;;;;;4968583;28;19917;-78
2023/12/31 15:55:08;;;;;;;;;;;9.90;99.90;;;;;;4975734;28;19914;-77
2023/12/31 15:57:54;;;;;;;;;;;10.00;99.90;;;;;;4985697;28;19914;-76
2023/12/31 16:00:40;;;;;;;;;;;10.00;99.90;;;;;;4983177;28;19917;-76
2023/12/31 16:03:26;;;;;;;;;;;9.90;99.90;;;;;;4995323;28;19918;-75
2023/12/31 16:06:12;;;;;;;;;;;10.00;99.90;;;;;;4965226;28;19922;-77
2023/12/31 16:08:58;;;;;;;;;;;10.00;99.90;;;;;;4955516;28;19950;-77
2023/12/31 16:11:43;;;;;;;;;;;9.90;99.90;;;;;;4967248;28;19921;-77
2023/12/31 16:14:29;;;;;;;;;;;9.90;99.90;;;;;;4974587;28;19979;-79
2023/12/31 16:17:15;;;;;;;;;;;9.90;99.90;;;;;;4976944;28;19914;-77
2023/12/31 16:20:01;;;;;;;;;;;9.90;99.90;;;;;;4973299;28;20913;-77
2023/12/31 16:22:47;;;;;;;;;;;9.90;99.90;;;;;;4980678;28;19914;-76